METAR Data
IDs: Format: Raw Decoded Include TAF

Data at: 2045 UTC 01 Dec 2021

METAR for:KSDF (Louisville Intl, KY, US)
Text:KSDF 011956Z 22010KT 10SM FEW036 BKN130 OVC200 16/08 A2989 RMK AO2 SLP121 T01610078
Temperature: 16.1°C ( 61°F)
Dewpoint: 7.8°C ( 46°F) [RH = 58%]
Pressure (altimeter):29.89 inches Hg (1012.3 mb) [Sea level pressure: 1012.1 mb]
Winds:from the SW (220 degrees) at 12 MPH (10 knots; 5.1 m/s)
Visibility:10 or more sm (16+ km)
Ceiling:13000 feet AGL
Clouds: few clouds at 3600 feet AGL, broken clouds at 13000 feet AGL, overcast cloud deck at 20000 feet AGL